Rm Cauca — HKRV8 — position and weather

sailwx.info

Track history (hours):
 
Tides and Currents Weather Stations Pressure Air Temp Water Temp Dewpoint Dewpoint Depression Visibility Wind Speed Wind Dir Waves Ship Positions

Rm Cauca

Last reported at 2018-Jan-22 00:00 UTC. Time now 2018-Jan-22 00:27 UTC.
Position N 10°58' W 074°46'.

Length 32 m.

Type: Tug. MMSI: 730151688.

Date/timePositionNaut miles runAvg speedWind from/ knotsBaromVisibWave heightAir tempDewpointWater temp
2018-Jan-22 00:00N 10°58' W 074°46'0 0.6
2018-Jan-21 23:30N 10°58' W 074°46'1 1.7
2018-Jan-21 22:59N 10°59' W 074°45'1 1.2
2018-Jan-21 22:29N 10°58' W 074°46'0 0.0
2018-Jan-21 22:00N 10°58' W 074°46'0 0.0
2018-Jan-21 21:30N 10°58' W 074°46'0 0.0
2018-Jan-21 21:00N 10°58' W 074°46'0 0.0
2018-Jan-21 20:30N 10°58' W 074°46'0 0.8
2018-Jan-21 20:00N 10°58' W 074°45'2 4.3
2018-Jan-21 19:30N 10°60' W 074°46'3 6.8
2018-Jan-21 19:00N 11°02' W 074°49'0 0.8
2018-Jan-21 18:30N 11°02' W 074°49'0 0.0
2018-Jan-21 18:00N 11°02' W 074°49'4 8.8
2018-Jan-21 17:30N 10°59' W 074°46'1 3.0
2018-Jan-21 17:00N 10°58' W 074°45'3 6.3
2018-Jan-21 16:30N 11°01' W 074°46'3 5.8
2018-Jan-21 16:00N 11°02' W 074°49'0 0.0
2018-Jan-21 15:30N 11°02' W 074°49'0 0.3
2018-Jan-21 15:00N 11°02' W 074°49'1 2.1
2018-Jan-21 14:30N 11°02' W 074°48'4 8.9
2018-Jan-21 14:00N 10°58' W 074°46'0 0.0
2018-Jan-21 13:29N 10°58' W 074°46'0 0.0
2018-Jan-21 12:59N 10°58' W 074°46'0 0.0
2018-Jan-21 12:30N 10°58' W 074°46'0 0.0
2018-Jan-21 12:00N 10°58' W 074°46'0 0.0
2018-Jan-21 11:28N 10°58' W 074°46'0 0.0
2018-Jan-21 11:00N 10°58' W 074°46'0 0.0
2018-Jan-21 10:30N 10°58' W 074°46'0 0.0
2018-Jan-21 10:00N 10°58' W 074°46'0 0.0
2018-Jan-21 09:28N 10°58' W 074°46'0 0.0
2018-Jan-21 09:00N 10°58' W 074°46'0 0.0
2018-Jan-21 08:30N 10°58' W 074°46'0 0.0
2018-Jan-21 08:00N 10°58' W 074°46'0 0.0
2018-Jan-21 07:29N 10°58' W 074°46'0 0.0
2018-Jan-21 07:00N 10°58' W 074°46'0 0.0
2018-Jan-21 06:29N 10°58' W 074°46'0 0.0
2018-Jan-21 06:00N 10°58' W 074°46'1 1.7
2018-Jan-21 05:30N 10°59' W 074°45'0 0.1
2018-Jan-21 05:00N 10°59' W 074°45'0 1.0
2018-Jan-21 04:30N 10°59' W 074°46'0 0.2
2018-Jan-21 04:00N 10°59' W 074°46'1 2.6
2018-Jan-21 03:30N 10°58' W 074°46'0 0.0
2018-Jan-21 03:00N 10°58' W 074°46'0 0.0
2018-Jan-21 02:30N 10°58' W 074°46'0 0.0
2018-Jan-21 02:00N 10°58' W 074°46'0 0.0
2018-Jan-21 01:30N 10°58' W 074°46'0 0.0
2018-Jan-21 01:00N 10°58' W 074°46'0 0.0
2018-Jan-21 00:30N 10°58' W 074°46'0 0.0
2018-Jan-21 00:00N 10°58' W 074°46'0 0.1
2018-Jan-20 23:30N 10°58' W 074°45'0 0.1
2018-Jan-20 22:59N 10°58' W 074°45'0 0.2
2018-Jan-20 22:29N 10°58' W 074°46'0 0.0
2018-Jan-20 22:00N 10°58' W 074°46'0 0.0
2018-Jan-20 21:30N 10°58' W 074°46'0 0.0
2018-Jan-20 21:00N 10°58' W 074°46'0 0.3
2018-Jan-20 20:30N 10°58' W 074°46'0 0.4
2018-Jan-20 20:00N 10°58' W 074°46'0 0.0
2018-Jan-20 19:29N 10°58' W 074°46'0 0.7
2018-Jan-20 18:59N 10°58' W 074°45'0 0.7
2018-Jan-20 18:30N 10°59' W 074°46'1 1.3
2018-Jan-20 17:58N 10°58' W 074°46'0 0.0
2018-Jan-20 17:30N 10°58' W 074°46'0 0.0
2018-Jan-20 17:00N 10°58' W 074°46'0 0.0
2018-Jan-20 16:30N 10°58' W 074°46'0 0.0
2018-Jan-20 16:00N 10°58' W 074°46'0 0.0
2018-Jan-20 15:29N 10°58' W 074°46'0 0.0
2018-Jan-20 14:59N 10°58' W 074°46'0 0.0
2018-Jan-20 14:30N 10°58' W 074°46'0 0.0
2018-Jan-20 13:59N 10°58' W 074°46'0 0.0
2018-Jan-20 13:30N 10°58' W 074°46'0 0.0
2018-Jan-20 13:00N 10°58' W 074°46'0 0.0
2018-Jan-20 12:30N 10°58' W 074°46'0 0.0
2018-Jan-20 11:58N 10°58' W 074°46'0 0.0
2018-Jan-20 11:24N 10°58' W 074°46'0 0.0
2018-Jan-20 10:58N 10°58' W 074°46'0 0.0
2018-Jan-20 10:30N 10°58' W 074°46'0 0.2
2018-Jan-20 10:00N 10°58' W 074°45'0 0.4
2018-Jan-20 09:30N 10°58' W 074°46'0 0.0
2018-Jan-20 09:00N 10°58' W 074°46'0 0.0
2018-Jan-20 08:30N 10°58' W 074°46'0 0.0
2018-Jan-20 08:00N 10°58' W 074°46'0 0.0
2018-Jan-20 07:29N 10°58' W 074°46'0 0.0
2018-Jan-20 07:00N 10°58' W 074°46'0 0.0
2018-Jan-20 06:30N 10°58' W 074°46'0 0.0
2018-Jan-20 06:00N 10°58' W 074°46'0 0.0
2018-Jan-20 05:30N 10°58' W 074°46'0 0.0
2018-Jan-20 05:00N 10°58' W 074°46'0 0.0
2018-Jan-20 04:30N 10°58' W 074°46'0 0.0
2018-Jan-20 04:00N 10°58' W 074°46'0 0.0
2018-Jan-20 03:30N 10°58' W 074°46'0 0.0
2018-Jan-20 02:59N 10°58' W 074°46'0 0.0
2018-Jan-20 02:30N 10°58' W 074°46'0 0.0
2018-Jan-19 23:12N 10°58' W 074°46'0 0.0
2018-Jan-19 23:00N 10°58' W 074°46'0 0.0
2018-Jan-19 22:28N 10°58' W 074°46'0 0.0
2018-Jan-19 21:59N 10°58' W 074°46'0 0.0
2018-Jan-19 21:30N 10°58' W 074°46'0 0.0
2018-Jan-19 21:00N 10°58' W 074°46'0 0.0
2018-Jan-19 20:29N 10°58' W 074°46'0 0.0
2018-Jan-19 20:00N 10°58' W 074°46'0 0.0
2018-Jan-19 19:29N 10°58' W 074°45'1 1.4
2018-Jan-19 18:51N 10°59' W 074°45'1 1.1
2018-Jan-19 18:08N 10°58' W 074°46'0 2.0
2018-Jan-19 18:00N 10°58' W 074°45'0 0.1
2018-Jan-19 17:21N 10°58' W 074°46'0 0.0
2018-Jan-19 17:00N 10°58' W 074°46'0 0.0
2018-Jan-19 16:29N 10°58' W 074°46'0 0.0
2018-Jan-19 16:00N 10°58' W 074°46'0 0.0
2018-Jan-19 15:28N 10°58' W 074°46'0 0.0
2018-Jan-19 15:00N 10°58' W 074°46'0 0.0
2018-Jan-19 14:29N 10°58' W 074°46'0 0.0
2018-Jan-19 14:00N 10°58' W 074°46'0 0.0
2018-Jan-19 13:28N 10°58' W 074°46'0 0.0
2018-Jan-19 13:00N 10°58' W 074°46'0 0.0
2018-Jan-19 12:30N 10°58' W 074°46'4 7.5
2018-Jan-19 12:00N 11°01' W 074°47'2 3.2
2018-Jan-19 11:25N 11°02' W 074°49'0 0.8
2018-Jan-19 11:00N 11°03' W 074°49'0 0.9
2018-Jan-19 10:30N 11°02' W 074°49'0 0.0
2018-Jan-19 09:59N 11°02' W 074°49'2 4.1
2018-Jan-19 09:30N 11°01' W 074°47'4 2.7
2018-Jan-19 08:10N 10°58' W 074°45'1 0.9
2018-Jan-19 06:54N 10°59' W 074°46'3 8.2
2018-Jan-19 06:30N 11°02' W 074°48'1 2.7
2018-Jan-19 06:00N 11°02' W 074°49'5 0.8
2018-Jan-18 23:12N 10°58' W 074°46'0 0.0
2018-Jan-18 22:58N 10°58' W 074°46'0 0.0
2018-Jan-18 22:23N 10°58' W 074°46'0 0.0
2018-Jan-18 22:00N 10°58' W 074°46'0 0.0
2018-Jan-18 21:29N 10°58' W 074°46'0 0.0
2018-Jan-18 21:00N 10°58' W 074°46'0 0.0
2018-Jan-18 20:28N 10°58' W 074°46'0 0.0
2018-Jan-18 19:54N 10°58' W 074°46'1 2.1
2018-Jan-18 19:28N 10°59' W 074°46'0 0.0
2018-Jan-18 18:59N 10°59' W 074°46'0 0.0
2018-Jan-18 18:30N 10°59' W 074°46'1 1.6
2018-Jan-18 18:00N 10°58' W 074°46'0 0.0
2018-Jan-18 17:30N 10°58' W 074°46'1 2.4
2018-Jan-18 16:59N 10°59' W 074°46'0 0.8
2018-Jan-18 16:29N 10°59' W 074°46'1 1.7
2018-Jan-18 15:59N 10°58' W 074°46'0 0.0
2018-Jan-18 15:28N 10°58' W 074°46'0 0.0
2018-Jan-18 14:57N 10°58' W 074°46'0 0.0
2018-Jan-18 14:30N 10°58' W 074°46'0 0.0
2018-Jan-18 13:57N 10°58' W 074°46'1 1.2
2018-Jan-18 13:29N 10°59' W 074°45'4 7.7
2018-Jan-18 13:00N 11°02' W 074°48'1 2.6
2018-Jan-18 12:29N 11°01' W 074°46'3 5.9
2018-Jan-18 12:00N 10°58' W 074°46'0 0.0
2018-Jan-18 11:30N 10°58' W 074°46'0 0.0
2018-Jan-18 11:00N 10°58' W 074°46'0 0.0
2018-Jan-18 10:30N 10°58' W 074°46'0 0.0
2018-Jan-18 10:00N 10°58' W 074°46'0 0.0
2018-Jan-18 09:29N 10°58' W 074°46'0 0.0
2018-Jan-18 08:59N 10°58' W 074°46'0 0.0
2018-Jan-18 08:29N 10°58' W 074°46'0 0.0
2018-Jan-18 08:00N 10°58' W 074°46'0 0.0
2018-Jan-18 07:30N 10°58' W 074°46'0 0.0
2018-Jan-18 06:59N 10°58' W 074°46'0 0.6
2018-Jan-18 06:30N 10°58' W 074°45'0 0.5
2018-Jan-18 05:59N 10°58' W 074°46'0 0.0
2018-Jan-18 05:30N 10°58' W 074°46'0 0.0
2018-Jan-18 05:00N 10°58' W 074°46'0 0.3
2018-Jan-18 04:28N 10°58' W 074°45'1 1.9
2018-Jan-18 03:59N 10°59' W 074°45'1 1.8
2018-Jan-18 03:30N 10°58' W 074°46'0 0.0
2018-Jan-18 03:00N 10°58' W 074°46'0 0.0
2018-Jan-18 02:30N 10°58' W 074°46'0 0.0
2018-Jan-18 02:00N 10°58' W 074°46'0 0.0
2018-Jan-18 01:30N 10°58' W 074°46'0 0.0
2018-Jan-18 01:00N 10°58' W 074°46'0 0.2
2018-Jan-18 00:00N 10°58' W 074°45'1 6.5
2018-Jan-17 23:55N 10°59' W 074°45'  
2018-Jan-12 14:56N 10°58' W 074°46'0 0.0
2018-Jan-12 14:30N 10°58' W 074°46'1 2.6
2018-Jan-12 14:00N 10°59' W 074°46'3 6.7
2018-Jan-12 13:30N 11°02' W 074°48'0 0.2
2018-Jan-12 12:58N 11°02' W 074°48'4 7.8
2018-Jan-12 12:30N 10°59' W 074°46'1 1.8
2018-Jan-12 12:00N 10°58' W 074°46'0 0.0
2018-Jan-12 11:30N 10°58' W 074°46'0 0.0
2018-Jan-12 10:53N 10°58' W 074°46'0 0.0
2018-Jan-12 10:29N 10°58' W 074°46'0 0.0
2018-Jan-12 09:55N 10°58' W 074°46'0 0.0
2018-Jan-12 09:24N 10°58' W 074°46'0 0.0
2018-Jan-12 08:53N 10°58' W 074°46'0 0.0
2018-Jan-12 08:30N 10°58' W 074°46'0 0.0
2018-Jan-12 08:00N 10°58' W 074°46'0 0.0
2018-Jan-12 07:30N 10°58' W 074°46'0 0.0
2018-Jan-12 06:58N 10°58' W 074°46'0 0.0
2018-Jan-12 06:30N 10°58' W 074°46'0 0.6
2018-Jan-12 06:00N 10°58' W 074°45'0 0.6
2018-Jan-12 05:30N 10°58' W 074°46'0 0.0
2018-Jan-12 04:47N 10°58' W 074°46'0 0.0
2018-Jan-12 04:30N 10°58' W 074°46'0 0.0
2018-Jan-12 03:55N 10°58' W 074°46'0 0.0
2018-Jan-12 03:30N 10°58' W 074°46'0 0.0
2018-Jan-12 03:00N 10°58' W 074°46'0 0.0
2018-Jan-12 02:30N 10°58' W 074°46'0 0.0
2018-Jan-12 01:58N 10°58' W 074°46'0 0.0
2018-Jan-12 01:30N 10°58' W 074°46'0 0.0
2018-Jan-12 00:59N 10°58' W 074°46'0 0.0
2018-Jan-12 00:30N 10°58' W 074°46'  
Track history (hours):
 
Tides and Currents Weather Stations Pressure Air Temp Water Temp Dewpoint Dewpoint Depression Visibility Wind Speed Wind Dir Waves Ship Positions

Rm Cauca

Last reported at 2018-Jan-22 00:00 UTC. Time now 2018-Jan-22 00:27 UTC.
Position N 10°58' W 074°46'.

Length 32 m.

Type: Tug. MMSI: 730151688.

Date/timePositionNaut miles runAvg speedWind from/ knotsBaromVisibWave heightAir tempDewpointWater temp
2018-Jan-22 00:00N 10°58' W 074°46'0 0.6
2018-Jan-21 23:30N 10°58' W 074°46'1 1.7
2018-Jan-21 22:59N 10°59' W 074°45'1 1.2
2018-Jan-21 22:29N 10°58' W 074°46'0 0.0
2018-Jan-21 22:00N 10°58' W 074°46'0 0.0
2018-Jan-21 21:30N 10°58' W 074°46'0 0.0
2018-Jan-21 21:00N 10°58' W 074°46'0 0.0
2018-Jan-21 20:30N 10°58' W 074°46'0 0.8
2018-Jan-21 20:00N 10°58' W 074°45'2 4.3
2018-Jan-21 19:30N 10°60' W 074°46'3 6.8
2018-Jan-21 19:00N 11°02' W 074°49'0 0.8
2018-Jan-21 18:30N 11°02' W 074°49'0 0.0
2018-Jan-21 18:00N 11°02' W 074°49'4 8.8
2018-Jan-21 17:30N 10°59' W 074°46'1 3.0
2018-Jan-21 17:00N 10°58' W 074°45'3 6.3
2018-Jan-21 16:30N 11°01' W 074°46'3 5.8
2018-Jan-21 16:00N 11°02' W 074°49'0 0.0
2018-Jan-21 15:30N 11°02' W 074°49'0 0.3
2018-Jan-21 15:00N 11°02' W 074°49'1 2.1
2018-Jan-21 14:30N 11°02' W 074°48'4 8.9
2018-Jan-21 14:00N 10°58' W 074°46'0 0.0
2018-Jan-21 13:29N 10°58' W 074°46'0 0.0
2018-Jan-21 12:59N 10°58' W 074°46'0 0.0
2018-Jan-21 12:30N 10°58' W 074°46'0 0.0
2018-Jan-21 12:00N 10°58' W 074°46'0 0.0
2018-Jan-21 11:28N 10°58' W 074°46'0 0.0
2018-Jan-21 11:00N 10°58' W 074°46'0 0.0
2018-Jan-21 10:30N 10°58' W 074°46'0 0.0
2018-Jan-21 10:00N 10°58' W 074°46'0 0.0
2018-Jan-21 09:28N 10°58' W 074°46'0 0.0
2018-Jan-21 09:00N 10°58' W 074°46'0 0.0
2018-Jan-21 08:30N 10°58' W 074°46'0 0.0
2018-Jan-21 08:00N 10°58' W 074°46'0 0.0
2018-Jan-21 07:29N 10°58' W 074°46'0 0.0
2018-Jan-21 07:00N 10°58' W 074°46'0 0.0
2018-Jan-21 06:29N 10°58' W 074°46'0 0.0
2018-Jan-21 06:00N 10°58' W 074°46'1 1.7
2018-Jan-21 05:30N 10°59' W 074°45'0 0.1
2018-Jan-21 05:00N 10°59' W 074°45'0 1.0
2018-Jan-21 04:30N 10°59' W 074°46'0 0.2
2018-Jan-21 04:00N 10°59' W 074°46'1 2.6
2018-Jan-21 03:30N 10°58' W 074°46'0 0.0
2018-Jan-21 03:00N 10°58' W 074°46'0 0.0
2018-Jan-21 02:30N 10°58' W 074°46'0 0.0
2018-Jan-21 02:00N 10°58' W 074°46'0 0.0
2018-Jan-21 01:30N 10°58' W 074°46'0 0.0
2018-Jan-21 01:00N 10°58' W 074°46'0 0.0
2018-Jan-21 00:30N 10°58' W 074°46'0 0.0
2018-Jan-21 00:00N 10°58' W 074°46'0 0.1
2018-Jan-20 23:30N 10°58' W 074°45'0 0.1
2018-Jan-20 22:59N 10°58' W 074°45'0 0.2
2018-Jan-20 22:29N 10°58' W 074°46'0 0.0
2018-Jan-20 22:00N 10°58' W 074°46'0 0.0
2018-Jan-20 21:30N 10°58' W 074°46'0 0.0
2018-Jan-20 21:00N 10°58' W 074°46'0 0.3
2018-Jan-20 20:30N 10°58' W 074°46'0 0.4
2018-Jan-20 20:00N 10°58' W 074°46'0 0.0
2018-Jan-20 19:29N 10°58' W 074°46'0 0.7
2018-Jan-20 18:59N 10°58' W 074°45'0 0.7
2018-Jan-20 18:30N 10°59' W 074°46'1 1.3
2018-Jan-20 17:58N 10°58' W 074°46'0 0.0
2018-Jan-20 17:30N 10°58' W 074°46'0 0.0
2018-Jan-20 17:00N 10°58' W 074°46'0 0.0
2018-Jan-20 16:30N 10°58' W 074°46'0 0.0
2018-Jan-20 16:00N 10°58' W 074°46'0 0.0
2018-Jan-20 15:29N 10°58' W 074°46'0 0.0
2018-Jan-20 14:59N 10°58' W 074°46'0 0.0
2018-Jan-20 14:30N 10°58' W 074°46'0 0.0
2018-Jan-20 13:59N 10°58' W 074°46'0 0.0
2018-Jan-20 13:30N 10°58' W 074°46'0 0.0
2018-Jan-20 13:00N 10°58' W 074°46'0 0.0
2018-Jan-20 12:30N 10°58' W 074°46'0 0.0
2018-Jan-20 11:58N 10°58' W 074°46'0 0.0
2018-Jan-20 11:24N 10°58' W 074°46'0 0.0
2018-Jan-20 10:58N 10°58' W 074°46'0 0.0
2018-Jan-20 10:30N 10°58' W 074°46'0 0.2
2018-Jan-20 10:00N 10°58' W 074°45'0 0.4
2018-Jan-20 09:30N 10°58' W 074°46'0 0.0
2018-Jan-20 09:00N 10°58' W 074°46'0 0.0
2018-Jan-20 08:30N 10°58' W 074°46'0 0.0
2018-Jan-20 08:00N 10°58' W 074°46'0 0.0
2018-Jan-20 07:29N 10°58' W 074°46'0 0.0
2018-Jan-20 07:00N 10°58' W 074°46'0 0.0
2018-Jan-20 06:30N 10°58' W 074°46'0 0.0
2018-Jan-20 06:00N 10°58' W 074°46'0 0.0
2018-Jan-20 05:30N 10°58' W 074°46'0 0.0
2018-Jan-20 05:00N 10°58' W 074°46'0 0.0
2018-Jan-20 04:30N 10°58' W 074°46'0 0.0
2018-Jan-20 04:00N 10°58' W 074°46'0 0.0
2018-Jan-20 03:30N 10°58' W 074°46'0 0.0
2018-Jan-20 02:59N 10°58' W 074°46'0 0.0
2018-Jan-20 02:30N 10°58' W 074°46'0 0.0
2018-Jan-19 23:12N 10°58' W 074°46'0 0.0
2018-Jan-19 23:00N 10°58' W 074°46'0 0.0
2018-Jan-19 22:28N 10°58' W 074°46'0 0.0
2018-Jan-19 21:59N 10°58' W 074°46'0 0.0
2018-Jan-19 21:30N 10°58' W 074°46'0 0.0
2018-Jan-19 21:00N 10°58' W 074°46'0 0.0
2018-Jan-19 20:29N 10°58' W 074°46'0 0.0
2018-Jan-19 20:00N 10°58' W 074°46'0 0.0
2018-Jan-19 19:29N 10°58' W 074°45'1 1.4
2018-Jan-19 18:51N 10°59' W 074°45'1 1.1
2018-Jan-19 18:08N 10°58' W 074°46'0 2.0
2018-Jan-19 18:00N 10°58' W 074°45'0 0.1
2018-Jan-19 17:21N 10°58' W 074°46'0 0.0
2018-Jan-19 17:00N 10°58' W 074°46'0 0.0
2018-Jan-19 16:29N 10°58' W 074°46'0 0.0
2018-Jan-19 16:00N 10°58' W 074°46'0 0.0
2018-Jan-19 15:28N 10°58' W 074°46'0 0.0
2018-Jan-19 15:00N 10°58' W 074°46'0 0.0
2018-Jan-19 14:29N 10°58' W 074°46'0 0.0
2018-Jan-19 14:00N 10°58' W 074°46'0 0.0
2018-Jan-19 13:28N 10°58' W 074°46'0 0.0
2018-Jan-19 13:00N 10°58' W 074°46'0 0.0
2018-Jan-19 12:30N 10°58' W 074°46'4 7.5
2018-Jan-19 12:00N 11°01' W 074°47'2 3.2
2018-Jan-19 11:25N 11°02' W 074°49'0 0.8
2018-Jan-19 11:00N 11°03' W 074°49'0 0.9
2018-Jan-19 10:30N 11°02' W 074°49'0 0.0
2018-Jan-19 09:59N 11°02' W 074°49'2 4.1
2018-Jan-19 09:30N 11°01' W 074°47'4 2.7
2018-Jan-19 08:10N 10°58' W 074°45'1 0.9
2018-Jan-19 06:54N 10°59' W 074°46'3 8.2
2018-Jan-19 06:30N 11°02' W 074°48'1 2.7
2018-Jan-19 06:00N 11°02' W 074°49'5 0.8
2018-Jan-18 23:12N 10°58' W 074°46'0 0.0
2018-Jan-18 22:58N 10°58' W 074°46'0 0.0
2018-Jan-18 22:23N 10°58' W 074°46'0 0.0
2018-Jan-18 22:00N 10°58' W 074°46'0 0.0
2018-Jan-18 21:29N 10°58' W 074°46'0 0.0
2018-Jan-18 21:00N 10°58' W 074°46'0 0.0
2018-Jan-18 20:28N 10°58' W 074°46'0 0.0
2018-Jan-18 19:54N 10°58' W 074°46'1 2.1
2018-Jan-18 19:28N 10°59' W 074°46'0 0.0
2018-Jan-18 18:59N 10°59' W 074°46'0 0.0
2018-Jan-18 18:30N 10°59' W 074°46'1 1.6
2018-Jan-18 18:00N 10°58' W 074°46'0 0.0
2018-Jan-18 17:30N 10°58' W 074°46'1 2.4
2018-Jan-18 16:59N 10°59' W 074°46'0 0.8
2018-Jan-18 16:29N 10°59' W 074°46'1 1.7
2018-Jan-18 15:59N 10°58' W 074°46'0 0.0
2018-Jan-18 15:28N 10°58' W 074°46'0 0.0
2018-Jan-18 14:57N 10°58' W 074°46'0 0.0
2018-Jan-18 14:30N 10°58' W 074°46'0 0.0
2018-Jan-18 13:57N 10°58' W 074°46'1 1.2
2018-Jan-18 13:29N 10°59' W 074°45'4 7.7
2018-Jan-18 13:00N 11°02' W 074°48'1 2.6
2018-Jan-18 12:29N 11°01' W 074°46'3 5.9
2018-Jan-18 12:00N 10°58' W 074°46'0 0.0
2018-Jan-18 11:30N 10°58' W 074°46'0 0.0
2018-Jan-18 11:00N 10°58' W 074°46'0 0.0
2018-Jan-18 10:30N 10°58' W 074°46'0 0.0
2018-Jan-18 10:00N 10°58' W 074°46'0 0.0
2018-Jan-18 09:29N 10°58' W 074°46'0 0.0
2018-Jan-18 08:59N 10°58' W 074°46'0 0.0
2018-Jan-18 08:29N 10°58' W 074°46'0 0.0
2018-Jan-18 08:00N 10°58' W 074°46'0 0.0
2018-Jan-18 07:30N 10°58' W 074°46'0 0.0
2018-Jan-18 06:59N 10°58' W 074°46'0 0.6
2018-Jan-18 06:30N 10°58' W 074°45'0 0.5
2018-Jan-18 05:59N 10°58' W 074°46'0 0.0
2018-Jan-18 05:30N 10°58' W 074°46'0 0.0
2018-Jan-18 05:00N 10°58' W 074°46'0 0.3
2018-Jan-18 04:28N 10°58' W 074°45'1 1.9
2018-Jan-18 03:59N 10°59' W 074°45'1 1.8
2018-Jan-18 03:30N 10°58' W 074°46'0 0.0
2018-Jan-18 03:00N 10°58' W 074°46'0 0.0
2018-Jan-18 02:30N 10°58' W 074°46'0 0.0
2018-Jan-18 02:00N 10°58' W 074°46'0 0.0
2018-Jan-18 01:30N 10°58' W 074°46'0 0.0
2018-Jan-18 01:00N 10°58' W 074°46'0 0.2
2018-Jan-18 00:00N 10°58' W 074°45'1 6.5
2018-Jan-17 23:55N 10°59' W 074°45'  
2018-Jan-12 14:56N 10°58' W 074°46'0 0.0
2018-Jan-12 14:30N 10°58' W 074°46'1 2.6
2018-Jan-12 14:00N 10°59' W 074°46'3 6.7
2018-Jan-12 13:30N 11°02' W 074°48'0 0.2
2018-Jan-12 12:58N 11°02' W 074°48'4 7.8
2018-Jan-12 12:30N 10°59' W 074°46'1 1.8
2018-Jan-12 12:00N 10°58' W 074°46'0 0.0
2018-Jan-12 11:30N 10°58' W 074°46'0 0.0
2018-Jan-12 10:53N 10°58' W 074°46'0 0.0
2018-Jan-12 10:29N 10°58' W 074°46'0 0.0
2018-Jan-12 09:55N 10°58' W 074°46'0 0.0
2018-Jan-12 09:24N 10°58' W 074°46'0 0.0
2018-Jan-12 08:53N 10°58' W 074°46'0 0.0
2018-Jan-12 08:30N 10°58' W 074°46'0 0.0
2018-Jan-12 08:00N 10°58' W 074°46'0 0.0
2018-Jan-12 07:30N 10°58' W 074°46'0 0.0
2018-Jan-12 06:58N 10°58' W 074°46'0 0.0
2018-Jan-12 06:30N 10°58' W 074°46'0 0.6
2018-Jan-12 06:00N 10°58' W 074°45'0 0.6
2018-Jan-12 05:30N 10°58' W 074°46'0 0.0
2018-Jan-12 04:47N 10°58' W 074°46'0 0.0
2018-Jan-12 04:30N 10°58' W 074°46'0 0.0
2018-Jan-12 03:55N 10°58' W 074°46'0 0.0
2018-Jan-12 03:30N 10°58' W 074°46'0 0.0
2018-Jan-12 03:00N 10°58' W 074°46'0 0.0
2018-Jan-12 02:30N 10°58' W 074°46'0 0.0
2018-Jan-12 01:58N 10°58' W 074°46'0 0.0
2018-Jan-12 01:30N 10°58' W 074°46'0 0.0
2018-Jan-12 00:59N 10°58' W 074°46'0 0.0
2018-Jan-12 00:30N 10°58' W 074°46'  

Dump ship's entire track history